sensor_id;sensor_type;location;lat;lon;timestamp;P1;durP1;ratioP1;P2;durP2;ratioP2
45909;SDS011;31622;55.416;37.840;2022-12-18T00:01:25;6.00;;;3.42;;
45909;SDS011;31622;55.416;37.840;2022-12-18T00:03:52;4.28;;;3.25;;
45909;SDS011;31622;55.416;37.840;2022-12-18T00:06:19;4.68;;;3.30;;
45909;SDS011;31622;55.416;37.840;2022-12-18T00:08:46;5.18;;;3.42;;
45909;SDS011;31622;55.416;37.840;2022-12-18T00:11:13;4.40;;;2.85;;
45909;SDS011;31622;55.416;37.840;2022-12-18T00:13:40;4.18;;;2.72;;
45909;SDS011;31622;55.416;37.840;2022-12-18T00:16:07;3.95;;;3.28;;
45909;SDS011;31622;55.416;37.840;2022-12-18T00:18:35;3.90;;;3.00;;
45909;SDS011;31622;55.416;37.840;2022-12-18T00:21:03;4.13;;;2.83;;
45909;SDS011;31622;55.416;37.840;2022-12-18T00:23:31;5.00;;;3.38;;
45909;SDS011;31622;55.416;37.840;2022-12-18T00:26:03;5.10;;;2.90;;
45909;SDS011;31622;55.416;37.840;2022-12-18T00:28:31;4.55;;;3.22;;
45909;SDS011;31622;55.416;37.840;2022-12-18T00:31:04;3.78;;;2.80;;
45909;SDS011;31622;55.416;37.840;2022-12-18T00:33:34;4.25;;;2.92;;
45909;SDS011;31622;55.416;37.840;2022-12-18T00:38:36;4.88;;;2.90;;
45909;SDS011;31622;55.416;37.840;2022-12-18T00:41:02;4.13;;;2.90;;
45909;SDS011;31622;55.416;37.840;2022-12-18T00:43:28;4.13;;;2.78;;
45909;SDS011;31622;55.416;37.840;2022-12-18T00:45:54;3.78;;;2.65;;
45909;SDS011;31622;55.416;37.840;2022-12-18T00:48:20;3.92;;;2.55;;
45909;SDS011;31622;55.416;37.840;2022-12-18T00:50:47;4.05;;;2.80;;
45909;SDS011;31622;55.416;37.840;2022-12-18T00:53:13;4.57;;;2.75;;
45909;SDS011;31622;55.416;37.840;2022-12-18T00:55:39;3.75;;;2.75;;
45909;SDS011;31622;55.416;37.840;2022-12-18T00:58:05;3.42;;;2.45;;
45909;SDS011;31622;55.416;37.840;2022-12-18T01:00:34;3.30;;;2.40;;
45909;SDS011;31622;55.416;37.840;2022-12-18T01:03:01;3.60;;;2.60;;
45909;SDS011;31622;55.416;37.840;2022-12-18T01:05:27;3.55;;;2.30;;
45909;SDS011;31622;55.416;37.840;2022-12-18T01:07:52;3.75;;;2.70;;
45909;SDS011;31622;55.416;37.840;2022-12-18T01:10:18;4.57;;;2.67;;
45909;SDS011;31622;55.416;37.840;2022-12-18T01:12:44;3.15;;;2.20;;
45909;SDS011;31622;55.416;37.840;2022-12-18T01:15:10;4.78;;;3.03;;
45909;SDS011;31622;55.416;37.840;2022-12-18T01:17:37;3.33;;;2.42;;
45909;SDS011;31622;55.416;37.840;2022-12-18T01:20:03;3.10;;;2.38;;
45909;SDS011;31622;55.416;37.840;2022-12-18T01:22:31;3.65;;;2.38;;
45909;SDS011;31622;55.416;37.840;2022-12-18T01:24:59;3.33;;;2.40;;
45909;SDS011;31622;55.416;37.840;2022-12-18T01:27:24;2.75;;;2.20;;
45909;SDS011;31622;55.416;37.840;2022-12-18T01:29:50;4.57;;;2.70;;
45909;SDS011;31622;55.416;37.840;2022-12-18T01:32:18;3.00;;;2.17;;
45909;SDS011;31622;55.416;37.840;2022-12-18T01:34:44;3.85;;;2.20;;
45909;SDS011;31622;55.416;37.840;2022-12-18T01:37:10;3.15;;;2.33;;
45909;SDS011;31622;55.416;37.840;2022-12-18T01:39:35;3.13;;;2.38;;
45909;SDS011;31622;55.416;37.840;2022-12-18T01:42:09;3.00;;;2.25;;
45909;SDS011;31622;55.416;37.840;2022-12-18T01:49:52;2.97;;;2.25;;
45909;SDS011;31622;55.416;37.840;2022-12-18T01:52:18;3.85;;;2.42;;
45909;SDS011;31622;55.416;37.840;2022-12-18T01:54:44;2.83;;;2.05;;
45909;SDS011;31622;55.416;37.840;2022-12-18T01:57:10;3.85;;;2.55;;
45909;SDS011;31622;55.416;37.840;2022-12-18T01:59:36;3.92;;;2.45;;
45909;SDS011;31622;55.416;37.840;2022-12-18T02:02:02;4.28;;;2.22;;
45909;SDS011;31622;55.416;37.840;2022-12-18T02:04:28;3.22;;;2.20;;
45909;SDS011;31622;55.416;37.840;2022-12-18T02:10:02;3.00;;;2.20;;
45909;SDS011;31622;55.416;37.840;2022-12-18T02:12:38;3.90;;;2.40;;
45909;SDS011;31622;55.416;37.840;2022-12-18T02:15:15;2.78;;;2.17;;
45909;SDS011;31622;55.416;37.840;2022-12-18T02:18:10;3.50;;;2.20;;
45909;SDS011;31622;55.416;37.840;2022-12-18T02:20:40;3.53;;;2.25;;
45909;SDS011;31622;55.416;37.840;2022-12-18T02:23:36;3.95;;;2.30;;
45909;SDS011;31622;55.416;37.840;2022-12-18T02:28:55;3.00;;;2.22;;
45909;SDS011;31622;55.416;37.840;2022-12-18T02:31:34;2.50;;;1.75;;
45909;SDS011;31622;55.416;37.840;2022-12-18T02:34:04;3.15;;;2.25;;
45909;SDS011;31622;55.416;37.840;2022-12-18T02:36:36;3.40;;;2.38;;
45909;SDS011;31622;55.416;37.840;2022-12-18T02:39:04;3.33;;;2.33;;
45909;SDS011;31622;55.416;37.840;2022-12-18T02:41:30;5.57;;;2.17;;
45909;SDS011;31622;55.416;37.840;2022-12-18T02:43:57;2.72;;;2.15;;
45909;SDS011;31622;55.416;37.840;2022-12-18T02:46:36;3.30;;;2.08;;
45909;SDS011;31622;55.416;37.840;2022-12-18T02:51:47;4.88;;;2.85;;
45909;SDS011;31622;55.416;37.840;2022-12-18T02:57:19;4.45;;;2.88;;
45909;SDS011;31622;55.416;37.840;2022-12-18T03:00:08;4.40;;;2.80;;
45909;SDS011;31622;55.416;37.840;2022-12-18T03:05:44;3.67;;;2.65;;
45909;SDS011;31622;55.416;37.840;2022-12-18T03:08:28;3.95;;;2.25;;
45909;SDS011;31622;55.416;37.840;2022-12-18T03:11:05;4.15;;;2.70;;
45909;SDS011;31622;55.416;37.840;2022-12-18T03:13:39;3.72;;;2.78;;
45909;SDS011;31622;55.416;37.840;2022-12-18T03:16:11;4.15;;;2.40;;
45909;SDS011;31622;55.416;37.840;2022-12-18T03:18:44;3.35;;;2.22;;
45909;SDS011;31622;55.416;37.840;2022-12-18T03:21:12;6.43;;;2.42;;
45909;SDS011;31622;55.416;37.840;2022-12-18T03:23:40;3.38;;;2.40;;
45909;SDS011;31622;55.416;37.840;2022-12-18T03:26:14;3.63;;;2.28;;
45909;SDS011;31622;55.416;37.840;2022-12-18T03:28:42;2.90;;;2.20;;
45909;SDS011;31622;55.416;37.840;2022-12-18T03:31:11;3.28;;;2.30;;
45909;SDS011;31622;55.416;37.840;2022-12-18T03:33:39;3.85;;;2.50;;
45909;SDS011;31622;55.416;37.840;2022-12-18T03:36:11;3.97;;;2.47;;
45909;SDS011;31622;55.416;37.840;2022-12-18T03:38:37;4.07;;;2.55;;
45909;SDS011;31622;55.416;37.840;2022-12-18T03:41:07;3.83;;;2.42;;
45909;SDS011;31622;55.416;37.840;2022-12-18T03:46:32;3.83;;;2.50;;
45909;SDS011;31622;55.416;37.840;2022-12-18T03:48:59;3.50;;;2.10;;
45909;SDS011;31622;55.416;37.840;2022-12-18T03:56:36;5.20;;;2.38;;
45909;SDS011;31622;55.416;37.840;2022-12-18T03:59:09;4.72;;;2.53;;
45909;SDS011;31622;55.416;37.840;2022-12-18T04:01:38;5.13;;;2.50;;
45909;SDS011;31622;55.416;37.840;2022-12-18T04:04:06;4.03;;;2.33;;
45909;SDS011;31622;55.416;37.840;2022-12-18T04:06:36;3.97;;;2.50;;
45909;SDS011;31622;55.416;37.840;2022-12-18T04:09:03;5.13;;;2.42;;
45909;SDS011;31622;55.416;37.840;2022-12-18T04:11:31;4.07;;;2.33;;
45909;SDS011;31622;55.416;37.840;2022-12-18T04:13:58;6.85;;;2.60;;
45909;SDS011;31622;55.416;37.840;2022-12-18T04:16:27;8.85;;;2.88;;
45909;SDS011;31622;55.416;37.840;2022-12-18T04:18:59;11.05;;;2.80;;
45909;SDS011;31622;55.416;37.840;2022-12-18T04:21:31;7.00;;;2.55;;
45909;SDS011;31622;55.416;37.840;2022-12-18T04:23:57;6.55;;;2.67;;
45909;SDS011;31622;55.416;37.840;2022-12-18T04:26:22;4.78;;;2.67;;
45909;SDS011;31622;55.416;37.840;2022-12-18T04:29:08;3.90;;;1.95;;
45909;SDS011;31622;55.416;37.840;2022-12-18T04:31:34;4.40;;;2.45;;
45909;SDS011;31622;55.416;37.840;2022-12-18T04:34:02;2.95;;;1.92;;
45909;SDS011;31622;55.416;37.840;2022-12-18T04:36:27;5.25;;;2.50;;
45909;SDS011;31622;55.416;37.840;2022-12-18T04:38:54;11.40;;;2.40;;
45909;SDS011;31622;55.416;37.840;2022-12-18T04:41:21;4.72;;;2.15;;
45909;SDS011;31622;55.416;37.840;2022-12-18T04:43:48;3.60;;;2.40;;
45909;SDS011;31622;55.416;37.840;2022-12-18T04:46:13;4.82;;;2.20;;
45909;SDS011;31622;55.416;37.840;2022-12-18T04:48:39;3.47;;;2.50;;
45909;SDS011;31622;55.416;37.840;2022-12-18T04:51:05;5.88;;;2.55;;
45909;SDS011;31622;55.416;37.840;2022-12-18T04:53:31;3.30;;;2.20;;
45909;SDS011;31622;55.416;37.840;2022-12-18T04:58:33;3.22;;;2.22;;
45909;SDS011;31622;55.416;37.840;2022-12-18T05:00:59;3.10;;;2.30;;
45909;SDS011;31622;55.416;37.840;2022-12-18T05:03:25;4.35;;;2.28;;
45909;SDS011;31622;55.416;37.840;2022-12-18T05:05:51;3.38;;;2.15;;
45909;SDS011;31622;55.416;37.840;2022-12-18T05:08:17;5.05;;;2.40;;
45909;SDS011;31622;55.416;37.840;2022-12-18T05:10:43;3.25;;;2.22;;
45909;SDS011;31622;55.416;37.840;2022-12-18T05:13:09;4.22;;;2.45;;
45909;SDS011;31622;55.416;37.840;2022-12-18T05:15:35;3.78;;;2.47;;
45909;SDS011;31622;55.416;37.840;2022-12-18T05:18:01;3.70;;;2.25;;
45909;SDS011;31622;55.416;37.840;2022-12-18T05:20:27;3.15;;;2.17;;
45909;SDS011;31622;55.416;37.840;2022-12-18T05:22:53;2.47;;;1.85;;
45909;SDS011;31622;55.416;37.840;2022-12-18T05:25:19;3.17;;;2.22;;
45909;SDS011;31622;55.416;37.840;2022-12-18T05:27:45;2.88;;;2.20;;
45909;SDS011;31622;55.416;37.840;2022-12-18T05:30:11;3.72;;;2.53;;
45909;SDS011;31622;55.416;37.840;2022-12-18T05:32:38;3.83;;;2.60;;
45909;SDS011;31622;55.416;37.840;2022-12-18T05:35:04;3.60;;;2.40;;
45909;SDS011;31622;55.416;37.840;2022-12-18T05:37:31;3.90;;;2.53;;
45909;SDS011;31622;55.416;37.840;2022-12-18T05:39:57;4.72;;;2.95;;
45909;SDS011;31622;55.416;37.840;2022-12-18T05:42:23;9.60;;;3.20;;
45909;SDS011;31622;55.416;37.840;2022-12-18T05:44:48;3.92;;;2.60;;
45909;SDS011;31622;55.416;37.840;2022-12-18T05:47:14;4.70;;;2.58;;
45909;SDS011;31622;55.416;37.840;2022-12-18T05:49:39;5.20;;;2.60;;
45909;SDS011;31622;55.416;37.840;2022-12-18T05:52:05;6.55;;;2.72;;
45909;SDS011;31622;55.416;37.840;2022-12-18T05:54:31;6.78;;;3.38;;
45909;SDS011;31622;55.416;37.840;2022-12-18T05:56:57;10.60;;;5.15;;
45909;SDS011;31622;55.416;37.840;2022-12-18T05:59:23;10.23;;;4.85;;
45909;SDS011;31622;55.416;37.840;2022-12-18T06:01:48;10.02;;;4.75;;
45909;SDS011;31622;55.416;37.840;2022-12-18T06:04:14;6.93;;;4.40;;
45909;SDS011;31622;55.416;37.840;2022-12-18T06:06:40;6.95;;;4.38;;
45909;SDS011;31622;55.416;37.840;2022-12-18T06:09:05;7.47;;;4.40;;
45909;SDS011;31622;55.416;37.840;2022-12-18T06:11:38;7.72;;;4.60;;
45909;SDS011;31622;55.416;37.840;2022-12-18T06:14:04;6.78;;;4.50;;
45909;SDS011;31622;55.416;37.840;2022-12-18T06:16:30;9.18;;;5.00;;
45909;SDS011;31622;55.416;37.840;2022-12-18T06:18:57;7.10;;;3.88;;
45909;SDS011;31622;55.416;37.840;2022-12-18T06:21:26;6.22;;;3.92;;
45909;SDS011;31622;55.416;37.840;2022-12-18T06:23:52;8.60;;;4.28;;
45909;SDS011;31622;55.416;37.840;2022-12-18T06:26:18;5.78;;;4.25;;
45909;SDS011;31622;55.416;37.840;2022-12-18T06:28:44;6.05;;;3.72;;
45909;SDS011;31622;55.416;37.840;2022-12-18T06:31:09;7.72;;;3.75;;
45909;SDS011;31622;55.416;37.840;2022-12-18T06:33:35;6.40;;;3.97;;
45909;SDS011;31622;55.416;37.840;2022-12-18T06:36:03;5.20;;;3.80;;
45909;SDS011;31622;55.416;37.840;2022-12-18T06:38:31;5.85;;;3.75;;
45909;SDS011;31622;55.416;37.840;2022-12-18T06:40:57;4.30;;;3.35;;
45909;SDS011;31622;55.416;37.840;2022-12-18T06:43:23;8.63;;;3.90;;
45909;SDS011;31622;55.416;37.840;2022-12-18T06:45:49;6.30;;;4.28;;
45909;SDS011;31622;55.416;37.840;2022-12-18T06:48:20;6.35;;;3.42;;
45909;SDS011;31622;55.416;37.840;2022-12-18T06:50:46;7.57;;;3.45;;
45909;SDS011;31622;55.416;37.840;2022-12-18T06:53:12;5.55;;;3.88;;
45909;SDS011;31622;55.416;37.840;2022-12-18T06:55:38;6.15;;;3.30;;
45909;SDS011;31622;55.416;37.840;2022-12-18T06:58:03;5.28;;;3.55;;
45909;SDS011;31622;55.416;37.840;2022-12-18T07:00:29;5.70;;;3.53;;
45909;SDS011;31622;55.416;37.840;2022-12-18T07:02:55;6.00;;;3.28;;
45909;SDS011;31622;55.416;37.840;2022-12-18T07:05:20;6.70;;;3.33;;
45909;SDS011;31622;55.416;37.840;2022-12-18T07:07:46;4.53;;;3.22;;
45909;SDS011;31622;55.416;37.840;2022-12-18T07:10:11;5.05;;;3.03;;
45909;SDS011;31622;55.416;37.840;2022-12-18T07:12:37;6.07;;;3.70;;
45909;SDS011;31622;55.416;37.840;2022-12-18T07:15:03;6.22;;;3.42;;
45909;SDS011;31622;55.416;37.840;2022-12-18T07:17:29;4.43;;;2.90;;
45909;SDS011;31622;55.416;37.840;2022-12-18T07:19:55;6.53;;;3.15;;
45909;SDS011;31622;55.416;37.840;2022-12-18T07:22:21;4.78;;;2.70;;
45909;SDS011;31622;55.416;37.840;2022-12-18T07:24:46;5.45;;;3.30;;
45909;SDS011;31622;55.416;37.840;2022-12-18T07:27:15;5.05;;;3.25;;
45909;SDS011;31622;55.416;37.840;2022-12-18T07:29:41;6.57;;;3.05;;
45909;SDS011;31622;55.416;37.840;2022-12-18T07:32:06;5.00;;;3.05;;
45909;SDS011;31622;55.416;37.840;2022-12-18T07:34:32;6.07;;;2.90;;
45909;SDS011;31622;55.416;37.840;2022-12-18T07:36:58;6.72;;;2.65;;
45909;SDS011;31622;55.416;37.840;2022-12-18T07:39:24;6.15;;;3.50;;
45909;SDS011;31622;55.416;37.840;2022-12-18T07:41:49;4.10;;;2.63;;
45909;SDS011;31622;55.416;37.840;2022-12-18T07:44:33;5.93;;;3.00;;
45909;SDS011;31622;55.416;37.840;2022-12-18T07:46:59;5.25;;;2.70;;
45909;SDS011;31622;55.416;37.840;2022-12-18T07:49:25;4.63;;;2.90;;
45909;SDS011;31622;55.416;37.840;2022-12-18T07:51:50;4.72;;;2.50;;
45909;SDS011;31622;55.416;37.840;2022-12-18T07:54:16;4.22;;;2.75;;
45909;SDS011;31622;55.416;37.840;2022-12-18T07:56:42;5.00;;;2.95;;
45909;SDS011;31622;55.416;37.840;2022-12-18T07:59:07;8.45;;;3.13;;
45909;SDS011;31622;55.416;37.840;2022-12-18T08:01:33;5.07;;;2.95;;
45909;SDS011;31622;55.416;37.840;2022-12-18T08:03:59;5.35;;;2.78;;
45909;SDS011;31622;55.416;37.840;2022-12-18T08:06:25;4.40;;;2.75;;
45909;SDS011;31622;55.416;37.840;2022-12-18T08:08:51;20.63;;;5.15;;
45909;SDS011;31622;55.416;37.840;2022-12-18T08:11:18;16.67;;;7.28;;
45909;SDS011;31622;55.416;37.840;2022-12-18T08:13:43;12.02;;;5.80;;
45909;SDS011;31622;55.416;37.840;2022-12-18T08:16:09;22.80;;;7.28;;
45909;SDS011;31622;55.416;37.840;2022-12-18T08:18:35;23.27;;;7.38;;
45909;SDS011;31622;55.416;37.840;2022-12-18T08:21:11;15.90;;;6.10;;
45909;SDS011;31622;55.416;37.840;2022-12-18T08:23:41;15.05;;;5.68;;
45909;SDS011;31622;55.416;37.840;2022-12-18T08:26:07;10.80;;;5.05;;
45909;SDS011;31622;55.416;37.840;2022-12-18T08:28:33;14.90;;;5.20;;
45909;SDS011;31622;55.416;37.840;2022-12-18T08:30:59;13.57;;;5.75;;
45909;SDS011;31622;55.416;37.840;2022-12-18T08:33:25;14.32;;;5.28;;
45909;SDS011;31622;55.416;37.840;2022-12-18T08:35:51;10.23;;;4.90;;
45909;SDS011;31622;55.416;37.840;2022-12-18T08:38:17;9.18;;;5.05;;
45909;SDS011;31622;55.416;37.840;2022-12-18T08:40:43;9.77;;;5.20;;
45909;SDS011;31622;55.416;37.840;2022-12-18T08:43:11;10.30;;;5.10;;
45909;SDS011;31622;55.416;37.840;2022-12-18T08:45:55;9.32;;;4.93;;
45909;SDS011;31622;55.416;37.840;2022-12-18T08:48:21;8.43;;;4.47;;
45909;SDS011;31622;55.416;37.840;2022-12-18T08:50:59;6.88;;;4.70;;
45909;SDS011;31622;55.416;37.840;2022-12-18T08:53:26;9.02;;;6.13;;
45909;SDS011;31622;55.416;37.840;2022-12-18T08:55:52;17.33;;;10.75;;
45909;SDS011;31622;55.416;37.840;2022-12-18T08:58:18;24.40;;;18.15;;
45909;SDS011;31622;55.416;37.840;2022-12-18T09:00:44;27.95;;;21.13;;
45909;SDS011;31622;55.416;37.840;2022-12-18T09:03:13;32.42;;;22.08;;
45909;SDS011;31622;55.416;37.840;2022-12-18T09:05:40;32.97;;;24.17;;
45909;SDS011;31622;55.416;37.840;2022-12-18T09:08:05;31.25;;;24.05;;
45909;SDS011;31622;55.416;37.840;2022-12-18T09:10:31;36.63;;;25.00;;
45909;SDS011;31622;55.416;37.840;2022-12-18T09:12:57;35.00;;;25.00;;
45909;SDS011;31622;55.416;37.840;2022-12-18T09:15:23;33.90;;;25.42;;
45909;SDS011;31622;55.416;37.840;2022-12-18T09:17:49;34.40;;;24.88;;
45909;SDS011;31622;55.416;37.840;2022-12-18T09:20:15;35.47;;;24.70;;
45909;SDS011;31622;55.416;37.840;2022-12-18T09:22:41;35.80;;;25.05;;
45909;SDS011;31622;55.416;37.840;2022-12-18T09:25:07;33.78;;;24.35;;
45909;SDS011;31622;55.416;37.840;2022-12-18T09:27:33;32.30;;;22.88;;
45909;SDS011;31622;55.416;37.840;2022-12-18T09:29:59;54.28;;;28.65;;
45909;SDS011;31622;55.416;37.840;2022-12-18T09:32:25;71.18;;;31.77;;
45909;SDS011;31622;55.416;37.840;2022-12-18T09:34:51;103.05;;;40.35;;
45909;SDS011;31622;55.416;37.840;2022-12-18T09:37:17;100.85;;;43.35;;
45909;SDS011;31622;55.416;37.840;2022-12-18T09:39:42;104.68;;;43.20;;
45909;SDS011;31622;55.416;37.840;2022-12-18T09:42:09;88.40;;;38.05;;
45909;SDS011;31622;55.416;37.840;2022-12-18T09:44:48;85.20;;;36.45;;
45909;SDS011;31622;55.416;37.840;2022-12-18T09:49:57;76.75;;;34.08;;
45909;SDS011;31622;55.416;37.840;2022-12-18T09:52:35;63.63;;;32.17;;
45909;SDS011;31622;55.416;37.840;2022-12-18T09:55:09;60.03;;;29.60;;
45909;SDS011;31622;55.416;37.840;2022-12-18T09:57:40;59.33;;;29.05;;
45909;SDS011;31622;55.416;37.840;2022-12-18T10:00:18;60.15;;;26.45;;
45909;SDS011;31622;55.416;37.840;2022-12-18T10:02:48;45.33;;;23.40;;
45909;SDS011;31622;55.416;37.840;2022-12-18T10:05:16;51.40;;;24.20;;
45909;SDS011;31622;55.416;37.840;2022-12-18T10:07:53;55.50;;;23.55;;
45909;SDS011;31622;55.416;37.840;2022-12-18T10:13:14;39.28;;;20.05;;
45909;SDS011;31622;55.416;37.840;2022-12-18T10:21:21;36.25;;;18.45;;
45909;SDS011;31622;55.416;37.840;2022-12-18T10:26:40;39.97;;;17.63;;
45909;SDS011;31622;55.416;37.840;2022-12-18T10:29:11;36.55;;;16.73;;
45909;SDS011;31622;55.416;37.840;2022-12-18T10:31:37;30.30;;;16.33;;
45909;SDS011;31622;55.416;37.840;2022-12-18T10:34:03;30.77;;;16.00;;
45909;SDS011;31622;55.416;37.840;2022-12-18T10:36:28;28.75;;;14.98;;
45909;SDS011;31622;55.416;37.840;2022-12-18T10:38:57;25.00;;;13.98;;
45909;SDS011;31622;55.416;37.840;2022-12-18T10:41:40;25.65;;;15.02;;
45909;SDS011;31622;55.416;37.840;2022-12-18T10:44:14;26.02;;;13.18;;
45909;SDS011;31622;55.416;37.840;2022-12-18T10:46:43;25.85;;;13.15;;
45909;SDS011;31622;55.416;37.840;2022-12-18T10:49:24;21.98;;;11.73;;
45909;SDS011;31622;55.416;37.840;2022-12-18T10:51:51;18.60;;;11.10;;
45909;SDS011;31622;55.416;37.840;2022-12-18T10:54:30;24.50;;;11.85;;
45909;SDS011;31622;55.416;37.840;2022-12-18T10:57:16;24.65;;;10.70;;
45909;SDS011;31622;55.416;37.840;2022-12-18T10:59:52;22.00;;;10.85;;
45909;SDS011;31622;55.416;37.840;2022-12-18T11:02:36;27.67;;;11.90;;
45909;SDS011;31622;55.416;37.840;2022-12-18T11:05:03;20.80;;;10.90;;
45909;SDS011;31622;55.416;37.840;2022-12-18T11:08:11;25.67;;;11.82;;
45909;SDS011;31622;55.416;37.840;2022-12-18T11:10:46;28.85;;;12.02;;
45909;SDS011;31622;55.416;37.840;2022-12-18T11:13:15;28.67;;;13.10;;
45909;SDS011;31622;55.416;37.840;2022-12-18T11:15:48;28.88;;;12.90;;
45909;SDS011;31622;55.416;37.840;2022-12-18T11:18:18;28.13;;;13.60;;
45909;SDS011;31622;55.416;37.840;2022-12-18T11:21:05;26.10;;;12.18;;
45909;SDS011;31622;55.416;37.840;2022-12-18T11:23:32;27.05;;;11.50;;
45909;SDS011;31622;55.416;37.840;2022-12-18T11:25:59;28.95;;;11.73;;
45909;SDS011;31622;55.416;37.840;2022-12-18T11:34:01;29.70;;;10.32;;
45909;SDS011;31622;55.416;37.840;2022-12-18T11:36:33;24.13;;;9.30;;
45909;SDS011;31622;55.416;37.840;2022-12-18T11:39:04;27.75;;;10.13;;
45909;SDS011;31622;55.416;37.840;2022-12-18T11:41:40;27.13;;;9.02;;
45909;SDS011;31622;55.416;37.840;2022-12-18T11:47:13;22.38;;;8.38;;
45909;SDS011;31622;55.416;37.840;2022-12-18T11:49:44;17.08;;;6.80;;
45909;SDS011;31622;55.416;37.840;2022-12-18T11:52:18;17.40;;;6.85;;
45909;SDS011;31622;55.416;37.840;2022-12-18T11:54:47;15.32;;;6.75;;
45909;SDS011;31622;55.416;37.840;2022-12-18T11:59:55;15.50;;;5.82;;
45909;SDS011;31622;55.416;37.840;2022-12-18T12:11:12;10.27;;;5.10;;
45909;SDS011;31622;55.416;37.840;2022-12-18T12:16:39;8.50;;;4.45;;
45909;SDS011;31622;55.416;37.840;2022-12-18T12:21:58;18.35;;;4.47;;
45909;SDS011;31622;55.416;37.840;2022-12-18T12:27:19;10.10;;;4.10;;
45909;SDS011;31622;55.416;37.840;2022-12-18T12:38:08;8.60;;;4.10;;
45909;SDS011;31622;55.416;37.840;2022-12-18T12:43:35;8.57;;;3.92;;
45909;SDS011;31622;55.416;37.840;2022-12-18T12:46:11;8.15;;;2.90;;
45909;SDS011;31622;55.416;37.840;2022-12-18T12:53:43;7.43;;;2.88;;
45909;SDS011;31622;55.416;37.840;2022-12-18T12:56:10;6.30;;;2.97;;
45909;SDS011;31622;55.416;37.840;2022-12-18T12:58:49;7.38;;;2.95;;
45909;SDS011;31622;55.416;37.840;2022-12-18T13:12:51;4.20;;;2.55;;
45909;SDS011;31622;55.416;37.840;2022-12-18T13:15:34;5.57;;;2.47;;
45909;SDS011;31622;55.416;37.840;2022-12-18T13:25:48;3.50;;;2.08;;
45909;SDS011;31622;55.416;37.840;2022-12-18T13:31:01;4.07;;;2.10;;
45909;SDS011;31622;55.416;37.840;2022-12-18T13:38:47;4.28;;;1.98;;
45909;SDS011;31622;55.416;37.840;2022-12-18T13:41:54;4.90;;;1.77;;
45909;SDS011;31622;55.416;37.840;2022-12-18T13:44:55;3.40;;;1.80;;
45909;SDS011;31622;55.416;37.840;2022-12-18T13:47:34;2.72;;;1.67;;
45909;SDS011;31622;55.416;37.840;2022-12-18T13:53:00;3.17;;;1.55;;
45909;SDS011;31622;55.416;37.840;2022-12-18T13:55:26;3.55;;;1.85;;
45909;SDS011;31622;55.416;37.840;2022-12-18T13:58:02;2.88;;;1.55;;
45909;SDS011;31622;55.416;37.840;2022-12-18T14:00:30;3.15;;;1.63;;
45909;SDS011;31622;55.416;37.840;2022-12-18T14:02:56;3.28;;;1.60;;
45909;SDS011;31622;55.416;37.840;2022-12-18T14:08:00;2.80;;;1.50;;
45909;SDS011;31622;55.416;37.840;2022-12-18T14:10:28;3.00;;;1.55;;
45909;SDS011;31622;55.416;37.840;2022-12-18T14:12:54;2.50;;;1.42;;
45909;SDS011;31622;55.416;37.840;2022-12-18T14:17:52;3.38;;;1.60;;
45909;SDS011;31622;55.416;37.840;2022-12-18T14:20:19;1.95;;;1.30;;
45909;SDS011;31622;55.416;37.840;2022-12-18T14:22:46;2.58;;;1.63;;
45909;SDS011;31622;55.416;37.840;2022-12-18T14:27:41;2.53;;;1.35;;
45909;SDS011;31622;55.416;37.840;2022-12-18T14:33:00;3.47;;;1.25;;
45909;SDS011;31622;55.416;37.840;2022-12-18T14:35:29;4.28;;;1.85;;
45909;SDS011;31622;55.416;37.840;2022-12-18T14:38:09;2.63;;;1.48;;
45909;SDS011;31622;55.416;37.840;2022-12-18T14:40:55;4.00;;;1.75;;
45909;SDS011;31622;55.416;37.840;2022-12-18T14:43:24;3.10;;;1.60;;
45909;SDS011;31622;55.416;37.840;2022-12-18T14:45:51;2.63;;;1.60;;
45909;SDS011;31622;55.416;37.840;2022-12-18T14:48:18;2.83;;;1.35;;
45909;SDS011;31622;55.416;37.840;2022-12-18T14:50:58;3.13;;;1.48;;
45909;SDS011;31622;55.416;37.840;2022-12-18T14:53:40;3.10;;;1.45;;
45909;SDS011;31622;55.416;37.840;2022-12-18T14:56:13;1.85;;;1.20;;
45909;SDS011;31622;55.416;37.840;2022-12-18T14:58:45;2.50;;;1.50;;
45909;SDS011;31622;55.416;37.840;2022-12-18T15:01:19;3.78;;;1.30;;
45909;SDS011;31622;55.416;37.840;2022-12-18T15:03:46;2.53;;;1.60;;
45909;SDS011;31622;55.416;37.840;2022-12-18T15:06:24;5.28;;;1.90;;
45909;SDS011;31622;55.416;37.840;2022-12-18T15:08:52;2.40;;;1.50;;
45909;SDS011;31622;55.416;37.840;2022-12-18T15:11:35;2.22;;;1.40;;
45909;SDS011;31622;55.416;37.840;2022-12-18T15:17:03;4.00;;;1.60;;
45909;SDS011;31622;55.416;37.840;2022-12-18T15:19:42;3.60;;;1.65;;
45909;SDS011;31622;55.416;37.840;2022-12-18T15:22:28;2.55;;;1.60;;
45909;SDS011;31622;55.416;37.840;2022-12-18T15:24:55;3.72;;;1.40;;
45909;SDS011;31622;55.416;37.840;2022-12-18T15:32:33;3.15;;;1.60;;
45909;SDS011;31622;55.416;37.840;2022-12-18T15:35:12;2.25;;;1.38;;
45909;SDS011;31622;55.416;37.840;2022-12-18T15:37:41;3.40;;;2.03;;
45909;SDS011;31622;55.416;37.840;2022-12-18T15:40:08;3.80;;;2.05;;
45909;SDS011;31622;55.416;37.840;2022-12-18T15:42:37;2.90;;;1.65;;
45909;SDS011;31622;55.416;37.840;2022-12-18T15:45:22;3.83;;;2.00;;
45909;SDS011;31622;55.416;37.840;2022-12-18T15:47:47;3.05;;;1.83;;
45909;SDS011;31622;55.416;37.840;2022-12-18T15:50:13;4.60;;;1.85;;
45909;SDS011;31622;55.416;37.840;2022-12-18T15:52:40;3.63;;;1.95;;
45909;SDS011;31622;55.416;37.840;2022-12-18T15:55:21;2.97;;;1.70;;
45909;SDS011;31622;55.416;37.840;2022-12-18T15:58:07;4.20;;;1.60;;
45909;SDS011;31622;55.416;37.840;2022-12-18T16:00:34;3.05;;;1.70;;
45909;SDS011;31622;55.416;37.840;2022-12-18T16:03:00;2.58;;;1.65;;
45909;SDS011;31622;55.416;37.840;2022-12-18T16:05:26;3.33;;;2.00;;
45909;SDS011;31622;55.416;37.840;2022-12-18T16:07:52;3.08;;;1.77;;
45909;SDS011;31622;55.416;37.840;2022-12-18T16:10:18;2.85;;;1.83;;
45909;SDS011;31622;55.416;37.840;2022-12-18T16:12:44;3.38;;;1.90;;
45909;SDS011;31622;55.416;37.840;2022-12-18T16:15:12;3.65;;;1.70;;
45909;SDS011;31622;55.416;37.840;2022-12-18T16:17:42;3.53;;;2.08;;
45909;SDS011;31622;55.416;37.840;2022-12-18T16:20:12;5.15;;;1.80;;
45909;SDS011;31622;55.416;37.840;2022-12-18T16:22:40;4.40;;;1.80;;
45909;SDS011;31622;55.416;37.840;2022-12-18T16:25:09;2.92;;;1.70;;
45909;SDS011;31622;55.416;37.840;2022-12-18T16:27:40;2.55;;;1.75;;
45909;SDS011;31622;55.416;37.840;2022-12-18T16:30:06;3.20;;;1.80;;
45909;SDS011;31622;55.416;37.840;2022-12-18T16:32:34;4.38;;;1.92;;
45909;SDS011;31622;55.416;37.840;2022-12-18T16:35:00;4.43;;;1.92;;
45909;SDS011;31622;55.416;37.840;2022-12-18T16:37:26;3.65;;;1.70;;
45909;SDS011;31622;55.416;37.840;2022-12-18T16:39:51;3.70;;;2.13;;
45909;SDS011;31622;55.416;37.840;2022-12-18T16:42:18;4.40;;;1.73;;
45909;SDS011;31622;55.416;37.840;2022-12-18T16:44:44;4.07;;;1.85;;
45909;SDS011;31622;55.416;37.840;2022-12-18T16:47:11;4.45;;;2.00;;
45909;SDS011;31622;55.416;37.840;2022-12-18T16:49:37;4.05;;;1.95;;
45909;SDS011;31622;55.416;37.840;2022-12-18T16:52:04;5.13;;;2.30;;
45909;SDS011;31622;55.416;37.840;2022-12-18T16:54:30;3.95;;;1.95;;
45909;SDS011;31622;55.416;37.840;2022-12-18T16:56:57;4.80;;;2.08;;
45909;SDS011;31622;55.416;37.840;2022-12-18T16:59:24;4.22;;;2.08;;
45909;SDS011;31622;55.416;37.840;2022-12-18T17:01:51;4.65;;;1.70;;